DMCMY / D-MFDX 7700 Squawk Report (15th of July, 2018)

Time Lat Lon Altitude Heading Speed Vertical Rate
2018-07-15 16:21:24 GMT 52.287231 7.974014 0 0 0
2018-07-15 16:21:18 GMT 52.287243 7.973955 0 0 0
2018-07-15 16:21:05 GMT 52.287277 7.973938 0 108 3
2018-07-15 16:19:52 GMT 52.286591 7.971115 0 88 52
2018-07-15 16:19:38 GMT 52.286541 7.968933 0 88 52
2018-07-15 16:19:25 GMT 52.286541 7.964460 0 88 52
2018-07-15 16:19:17 GMT 52.286591 7.961243 0 91 53
2018-07-15 16:19:11 GMT 52.286591 7.959061 0 87 54
2018-07-15 16:19:06 GMT 52.286591 7.956927 0 89 58
2018-07-15 16:18:54 GMT 52.286591 7.952042 0 92 57
2018-07-15 16:18:49 GMT 52.286728 7.949393 0 92 57
2018-07-15 16:18:45 GMT 52.286819 7.947693 0 90 64
2018-07-15 16:18:35 GMT 52.285145 7.943900 0 23 66
2018-07-15 16:18:24 GMT 52.282013 7.942505 0 8 71
2018-07-15 16:18:15 GMT 52.278442 7.941624 0 358 74
2018-07-15 16:18:02 GMT 52.274872 7.944565 0 290 85
2018-07-15 16:17:58 GMT 52.274185 7.946777 0 290 85
2018-07-15 16:17:53 GMT 52.273499 7.949677 0 287 86
2018-07-15 16:17:42 GMT 52.272675 7.956924 0 189 119
2018-07-15 16:17:37 GMT 52.273178 7.960358 0 241 91
2018-07-15 16:17:31 GMT 52.275055 7.963486 0 210 100
2018-07-15 16:17:25 GMT 52.277836 7.965009 0 197 103
2018-07-15 16:17:21 GMT 52.279793 7.965480 0 189 119
2018-07-15 16:17:12 GMT 52.284760 7.966690 0 188 118
2018-07-15 16:17:06 GMT 52.287872 7.967377 0 190 119
2018-07-15 16:17:00 GMT 52.291847 7.968384 0 190 119
2018-07-15 16:16:55 GMT 52.293915 7.968826 0 188 117
2018-07-15 16:16:51 GMT 52.295944 7.969247 0 186 116
2018-07-15 16:16:40 GMT 52.301857 7.969875 0 181 119
2018-07-15 16:16:37 GMT 52.303581 7.969953 0 182 116
2018-07-15 16:16:31 GMT 52.307537 7.969796 0 179 117
2018-07-15 16:16:22 GMT 52.311722 7.969971 0 183 116
2018-07-15 16:16:18 GMT 52.313690 7.970047 0 182 117
2018-07-15 16:16:09 GMT 52.319317 7.970346 0 183 113
2018-07-15 16:16:04 GMT 52.321747 7.970505 0 183 113
2018-07-15 16:16:00 GMT 52.323505 7.970581 0 183 113
2018-07-15 16:15:57 GMT 52.325134 7.970660 0 182 112
2018-07-15 16:15:54 GMT 52.326996 7.970738 0 182 110
2018-07-15 16:15:50 GMT 52.328999 7.970816 0 183 109
2018-07-15 16:15:41 GMT 52.333515 7.971052 0 182 110
2018-07-15 16:15:37 GMT 52.335701 7.971209 0 183 109
2018-07-15 16:15:29 GMT 52.339279 7.971344 0 180 110
2018-07-15 16:15:26 GMT 52.340698 7.971344 0 180 110
2018-07-15 16:15:19 GMT 52.344685 7.971366 0 180 109
2018-07-15 16:15:15 GMT 52.346268 7.971366 0 180 109
2018-07-15 16:15:07 GMT 52.350132 7.971601 0 184 107
2018-07-15 16:15:01 GMT 52.353378 7.971802 0 184 110
2018-07-15 16:14:55 GMT 52.356354 7.972031 0 184 111
2018-07-15 16:14:48 GMT 52.360428 7.972412 0 184 109
2018-07-15 16:14:36 GMT 52.366474 7.973014 0 185 112
2018-07-15 16:14:24 GMT 52.372013 7.973485 0 178 110
2018-07-15 16:14:15 GMT 52.376530 7.973720 0 183 111
2018-07-15 16:14:05 GMT 52.381897 7.973709 0 178 110
2018-07-15 16:13:57 GMT 52.385838 7.973485 0 177 108
2018-07-15 16:13:54 GMT 52.387299 7.973328 0 176 107
2018-07-15 16:13:51 GMT 52.388901 7.973175 0 176 107
2018-07-15 16:13:47 GMT 52.390869 7.972946 0 173 107
2018-07-15 16:13:44 GMT 52.392170 7.972857 0 176 107
2018-07-15 16:13:34 GMT 52.397369 7.971954 0 174 107
2018-07-15 16:13:31 GMT 52.398788 7.971725 0 175 108
2018-07-15 16:13:23 GMT 52.402588 7.971039 0 173 107
2018-07-15 16:13:17 GMT 52.406227 7.970267 0 175 108
2018-07-15 16:13:14 GMT 52.407810 7.970032 0 174 108
2018-07-15 16:13:10 GMT 52.409546 7.969742 0 175 108
2018-07-15 16:13:03 GMT 52.412704 7.969284 0 175 108
2018-07-15 16:12:59 GMT 52.414745 7.969012 0 176 110
2018-07-15 16:12:54 GMT 52.416916 7.968903 0 180 107
2018-07-15 16:12:51 GMT 52.418518 7.968933 0 180 109
2018-07-15 16:12:40 GMT 52.424011 7.968148 0 172 110
2018-07-15 16:12:36 GMT 52.426758 7.967442 0 170 112
2018-07-15 16:12:31 GMT 52.428806 7.966893 0 170 110
2018-07-15 16:12:21 GMT 52.433693 7.965402 0 159 109
2018-07-15 16:12:11 GMT 52.439392 7.962875 0 160 111
2018-07-15 16:12:00 GMT 52.444355 7.959987 0 162 108
2018-07-15 16:11:54 GMT 52.447266 7.958450 0 166 108
2018-07-15 16:11:50 GMT 52.448872 7.957633 0 167 106
2018-07-15 16:11:46 GMT 52.450790 7.957153 0 174 110
2018-07-15 16:11:40 GMT 52.454041 7.956696 0 174 111
2018-07-15 16:11:35 GMT 52.456551 7.956456 0 176 109
2018-07-15 16:11:31 GMT 52.458298 7.956314 0 176 108
2018-07-15 16:11:28 GMT 52.459717 7.956161 0 176 109
2018-07-15 16:11:24 GMT 52.462555 7.955906 0 177 109
2018-07-15 16:11:19 GMT 52.464478 7.955856 0 177 108
2018-07-15 16:11:11 GMT 52.469147 7.955551 0 176 110
2018-07-15 16:11:07 GMT 52.470657 7.955514 0 178 110
2018-07-15 16:11:03 GMT 52.473038 7.955399 0 176 112
2018-07-15 16:10:57 GMT 52.476151 7.955017 0 173 113
2018-07-15 16:10:48 GMT 52.480480 7.954337 0 182 113
2018-07-15 16:10:42 GMT 52.484158 7.954023 0 177 113
2018-07-15 16:10:37 GMT 52.486176 7.954025 0 182 113
2018-07-15 16:10:26 GMT 52.492310 7.954102 0 176 111
2018-07-15 16:10:19 GMT 52.495514 7.954023 0 177 112
2018-07-15 16:10:15 GMT 52.498077 7.953796 0 176 111
2018-07-15 16:10:06 GMT 52.502220 7.953552 0 177 109
2018-07-15 16:10:03 GMT 52.503754 7.953491 0 177 109
2018-07-15 16:09:59 GMT 52.505722 7.953339 0 177 107
2018-07-15 16:09:54 GMT 52.508560 7.953186 0 177 108
2018-07-15 16:09:49 GMT 52.510784 7.953003 0 177 108
2018-07-15 16:09:42 GMT 52.513996 7.952846 0 177 109
2018-07-15 16:09:34 GMT 52.517899 7.952728 0 177 109
2018-07-15 16:09:30 GMT 52.520279 7.952576 0 177 110
2018-07-15 16:09:19 GMT 52.525589 7.952140 0 178 109
2018-07-15 16:09:14 GMT 52.528568 7.952061 0 178 107
2018-07-15 16:09:09 GMT 52.530624 7.952042 0 177 104
2018-07-15 16:09:06 GMT 52.532104 7.951983 0 177 104
2018-07-15 16:09:02 GMT 52.534481 7.951904 0 177 104
2018-07-15 16:08:58 GMT 52.536621 7.951736 0 177 102
2018-07-15 16:08:53 GMT 52.538250 7.951590 0 177 101
2018-07-15 16:08:47 GMT 52.541153 7.951431 0 177 102
2018-07-15 16:08:43 GMT 52.543091 7.951355 0 178 103
2018-07-15 16:08:35 GMT 52.547012 7.951050 0 177 103
2018-07-15 16:08:23 GMT 52.552544 7.950649 0 180 107
2018-07-15 16:08:12 GMT 52.558823 7.951050 0 183 108
2018-07-15 16:08:02 GMT 52.563263 7.951508 0 183 105
2018-07-15 16:07:50 GMT 52.568649 7.952061 0 184 107
2018-07-15 16:07:38 GMT 52.574886 7.952689 0 185 108
2018-07-15 16:07:29 GMT 52.579590 7.953160 0 184 106
2018-07-15 16:07:22 GMT 52.583359 7.953474 0 184 107
2018-07-15 16:07:14 GMT 52.587502 7.953866 0 185 108
2018-07-15 16:07:10 GMT 52.589035 7.954025 0 183 111
2018-07-15 16:07:03 GMT 52.592995 7.954259 0 182 114
2018-07-15 16:06:57 GMT 52.596130 7.954407 0 182 113
2018-07-15 16:06:50 GMT 52.599979 7.954572 0 180 113
2018-07-15 16:06:44 GMT 52.602997 7.954483 0 178 113
2018-07-15 16:06:39 GMT 52.605331 7.954337 0 177 110
2018-07-15 16:06:31 GMT 52.609802 7.954023 0 177 108
2018-07-15 16:06:27 GMT 52.611282 7.954025 0 187 111
2018-07-15 16:06:20 GMT 52.615295 7.954572 0 191 113
2018-07-15 16:06:12 GMT 52.618790 7.955551 0 190 116
2018-07-15 16:06:09 GMT 52.620941 7.956085 0 188 118
2018-07-15 16:05:56 GMT 52.627213 7.957005 0 169 113
2018-07-15 16:05:52 GMT 52.629261 7.956142 0 157 110
2018-07-15 16:05:48 GMT 52.631607 7.954483 0 155 111
2018-07-15 16:05:45 GMT 52.632847 7.953552 0 144 111
2018-07-15 16:05:40 GMT 52.635361 7.950821 0 145 112
2018-07-15 16:05:35 GMT 52.637604 7.948456 0 155 111
2018-07-15 16:05:29 GMT 52.639919 7.946490 0 160 111
2018-07-15 16:05:22 GMT 52.643463 7.945480 0 183 112
2018-07-15 16:05:12 GMT 52.648579 7.946411 0 180 106
2018-07-15 16:05:01 GMT 52.653980 7.945705 0 176 107
2018-07-15 16:04:54 GMT 52.657799 7.945391 0 178 111
2018-07-15 16:04:50 GMT 52.659348 7.945404 0 178 111
2018-07-15 16:04:43 GMT 52.663513 7.945099 0 177 115
2018-07-15 16:04:39 GMT 52.665291 7.944920 0 177 116
2018-07-15 16:04:31 GMT 52.669830 7.944489 0 177 117
2018-07-15 16:04:28 GMT 52.671204 7.944371 0 176 115
2018-07-15 16:04:18 GMT 52.676743 7.943429 0 176 113
2018-07-15 16:04:12 GMT 52.679398 7.943192 0 177 114
2018-07-15 16:04:08 GMT 52.681320 7.943115 0 176 113
2018-07-15 16:04:05 GMT 52.682888 7.942880 0 174 111
2018-07-15 16:04:00 GMT 52.685493 7.942566 0 177 108
2018-07-15 16:03:57 GMT 52.686893 7.942487 0 177 108
2018-07-15 16:03:54 GMT 52.688473 7.942330 0 177 108
2018-07-15 16:03:47 GMT 52.691872 7.942095 0 176 107
2018-07-15 16:03:43 GMT 52.693829 7.941938 0 176 104
2018-07-15 16:03:37 GMT 52.697296 7.941513 0 176 104
2018-07-15 16:03:33 GMT 52.699181 7.941310 0 177 105
2018-07-15 16:03:26 GMT 52.702255 7.941075 0 177 104
2018-07-15 16:03:21 GMT 52.704536 7.940761 0 174 102
2018-07-15 16:03:15 GMT 52.707275 7.940445 0 177 104
2018-07-15 16:03:10 GMT 52.709888 7.940290 0 178 110
2018-07-15 16:03:05 GMT 52.712402 7.940212 0 178 114
2018-07-15 16:02:58 GMT 52.715755 7.940133 0 179 116
2018-07-15 16:02:54 GMT 52.718174 7.940055 0 177 117
2018-07-15 16:02:48 GMT 52.721619 7.939662 0 175 117
2018-07-15 16:02:44 GMT 52.723763 7.939348 0 176 116
2018-07-15 16:02:37 GMT 52.727509 7.938843 0 174 113
2018-07-15 16:02:32 GMT 52.730164 7.938461 0 175 108
2018-07-15 16:02:26 GMT 52.733070 7.938014 0 175 104
2018-07-15 16:02:21 GMT 52.735725 7.937622 0 174 98
2018-07-15 16:02:15 GMT 52.738129 7.937393 0 178 96
2018-07-15 16:02:12 GMT 52.739311 7.937308 0 178 97
2018-07-15 16:02:08 GMT 52.741104 7.937164 0 178 97
2018-07-15 16:02:02 GMT 52.743805 7.937088 0 178 99
2018-07-15 16:01:51 GMT 52.748852 7.936759 0 177 105
2018-07-15 16:01:47 GMT 52.751366 7.936602 0 176 108
2018-07-15 16:01:40 GMT 52.754288 7.936249 0 175 109
2018-07-15 16:01:35 GMT 52.757538 7.935944 0 176 112
2018-07-15 16:01:31 GMT 52.759827 7.935715 0 176 116
2018-07-15 16:01:25 GMT 52.762539 7.935346 0 177 117
2018-07-15 16:01:20 GMT 52.765144 7.935111 0 177 116
2018-07-15 16:01:13 GMT 52.769196 7.934875 0 175 113
2018-07-15 16:01:09 GMT 52.771057 7.934719 0 175 113
2018-07-15 16:00:58 GMT 52.776810 7.934189 0 177 107
2018-07-15 16:00:47 GMT 52.782326 7.933541 0 173 111
2018-07-15 16:00:39 GMT 52.786514 7.932992 0 176 114
2018-07-15 16:00:36 GMT 52.788116 7.932892 0 176 113
2018-07-15 16:00:28 GMT 52.792007 7.932587 0 177 114
2018-07-15 16:00:25 GMT 52.793930 7.932510 0 178 117
2018-07-15 16:00:17 GMT 52.798058 7.932286 0 178 123
2018-07-15 16:00:13 GMT 52.800064 7.932129 0 175 122
2018-07-15 16:00:06 GMT 52.804016 7.931737 0 177 121
2018-07-15 16:00:03 GMT 52.805832 7.931519 0 176 117
2018-07-15 15:59:55 GMT 52.809586 7.931061 0 174 112
2018-07-15 15:59:52 GMT 52.811558 7.930795 0 175 112
2018-07-15 15:59:46 GMT 52.814911 7.930402 0 177 110
2018-07-15 15:59:41 GMT 52.817139 7.930298 0 177 108
2018-07-15 15:59:34 GMT 52.820824 7.930010 0 177 101
2018-07-15 15:59:30 GMT 52.822498 7.929853 0 177 101
2018-07-15 15:59:25 GMT 52.825058 7.929611 0 177 101
2018-07-15 15:59:19 GMT 52.827713 7.929382 0 175 110
2018-07-15 15:59:14 GMT 52.830040 7.929147 0 176 106
2018-07-15 15:59:08 GMT 52.832928 7.928911 0 176 105
2018-07-15 15:59:03 GMT 52.835300 7.928598 0 175 108
2018-07-15 15:58:56 GMT 52.838791 7.928284 0 179 115
2018-07-15 15:58:53 GMT 52.840393 7.928238 0 178 115
2018-07-15 15:58:46 GMT 52.844238 7.927813 0 175 112
2018-07-15 15:58:40 GMT 52.847961 7.927420 0 177 116
2018-07-15 15:58:32 GMT 52.851639 7.927185 0 178 117
2018-07-15 15:58:28 GMT 52.853714 7.927094 0 179 119
2018-07-15 15:58:24 GMT 52.856552 7.927017 0 178 118
2018-07-15 15:58:21 GMT 52.857651 7.926865 0 178 117
2018-07-15 15:58:11 GMT 52.863007 7.926559 0 176 116
2018-07-15 15:58:05 GMT 52.865982 7.926102 0 175 115
2018-07-15 15:58:00 GMT 52.868591 7.925644 0 174 114
2018-07-15 15:57:54 GMT 52.872543 7.925302 0 175 110
2018-07-15 15:57:49 GMT 52.874405 7.925066 0 175 110
2018-07-15 15:57:39 GMT 52.879349 7.924500 0 175 108
2018-07-15 15:57:31 GMT 52.884460 7.923889 0 175 113
2018-07-15 15:57:28 GMT 52.884979 7.923813 0 175 114
2018-07-15 15:57:18 GMT 52.890198 7.923431 0 179 118
2018-07-15 15:57:13 GMT 52.893257 7.923340 0 179 118
2018-07-15 15:57:08 GMT 52.895737 7.923126 0 176 116
2018-07-15 15:57:04 GMT 52.897541 7.923026 0 177 117
2018-07-15 15:56:58 GMT 52.901264 7.922791 0 179 115
2018-07-15 15:56:54 GMT 52.903404 7.922634 0 177 113
2018-07-15 15:56:49 GMT 52.905762 7.922440 0 176 111
2018-07-15 15:56:46 GMT 52.907822 7.922211 0 175 108
2018-07-15 15:56:43 GMT 52.909367 7.921927 0 173 109
2018-07-15 15:56:35 GMT 52.913136 7.921143 0 173 108
2018-07-15 15:56:31 GMT 52.915054 7.920761 0 175 108
2018-07-15 15:56:25 GMT 52.918304 7.920201 0 175 108
2018-07-15 15:56:19 GMT 52.920723 7.919965 0 176 110
2018-07-15 15:56:14 GMT 52.923515 7.919652 0 176 111
2018-07-15 15:56:09 GMT 52.926636 7.919338 0 175 115
2018-07-15 15:56:03 GMT 52.928833 7.918930 0 175 115
2018-07-15 15:55:53 GMT 52.934464 7.918015 0 174 107
2018-07-15 15:55:43 GMT 52.939812 7.916905 0 166 109
2018-07-15 15:55:32 GMT 52.944466 7.913217 0 140 107
2018-07-15 15:55:24 GMT 52.947327 7.908707 0 136 101
2018-07-15 15:55:21 GMT 52.948196 7.907333 0 136 101
2018-07-15 15:55:14 GMT 52.950439 7.903519 0 133 102
2018-07-15 15:55:11 GMT 52.951588 7.901446 0 131 99
2018-07-15 15:55:05 GMT 52.953358 7.897993 0 130 99
2018-07-15 15:55:00 GMT 52.954845 7.895246 0 132 101
2018-07-15 15:54:49 GMT 52.958431 7.889125 0 138 107
2018-07-15 15:54:39 GMT 52.962433 7.883224 0 140 109
2018-07-15 15:54:28 GMT 52.966782 7.877884 0 147 110
2018-07-15 15:54:17 GMT 52.971863 7.873001 0 149 107
2018-07-15 15:54:09 GMT 52.975433 7.869415 0 151 107
2018-07-15 15:54:05 GMT 52.976681 7.868173 0 148 106
2018-07-15 15:53:59 GMT 52.979050 7.865753 0 151 107
2018-07-15 15:53:54 GMT 52.980927 7.863922 0 149 105
2018-07-15 15:53:45 GMT 52.984863 7.860184 0 149 107
2018-07-15 15:53:42 GMT 52.985943 7.859227 0 151 107
2018-07-15 15:53:33 GMT 52.990311 7.855072 0 148 102
2018-07-15 15:53:24 GMT 52.993652 7.851715 0 148 101
2018-07-15 15:53:21 GMT 52.994843 7.850571 0 150 102
2018-07-15 15:53:14 GMT 52.997955 7.847770 0 151 107
2018-07-15 15:53:09 GMT 52.999969 7.845840 0 148 108
2018-07-15 15:53:03 GMT 53.002518 7.843297 0 148 109
2018-07-15 15:52:59 GMT 53.004517 7.841335 0 148 109
2018-07-15 15:52:53 GMT 53.006939 7.838902 0 149 107
2018-07-15 15:52:47 GMT 53.009357 7.836469 0 149 107
2018-07-15 15:52:43 GMT 53.011360 7.834508 0 148 109
2018-07-15 15:52:35 GMT 53.014526 7.831369 0 149 101
2018-07-15 15:52:32 GMT 53.015690 7.830191 0 148 109
2018-07-15 15:52:22 GMT 53.020065 7.826004 0 148 109
2018-07-15 15:52:11 GMT 53.024826 7.821350 0 150 114
2018-07-15 15:52:01 GMT 53.029751 7.816851 0 149 107
2018-07-15 15:51:49 GMT 53.034172 7.812378 0 146 102
2018-07-15 15:51:42 GMT 53.037243 7.809161 0 149 109
2018-07-15 15:51:39 GMT 53.038376 7.808075 0 149 107
2018-07-15 15:51:28 GMT 53.043343 7.803353 0 150 112
2018-07-15 15:51:22 GMT 53.046413 7.800450 0 150 108
2018-07-15 15:51:17 GMT 53.048370 7.798645 0 149 111
2018-07-15 15:51:06 GMT 53.053345 7.793808 0 149 107
2018-07-15 15:50:57 GMT 53.056961 7.790298 0 148 111
2018-07-15 15:50:54 GMT 53.058060 7.789230 0 149 108
2018-07-15 15:50:47 GMT 53.061539 7.785797 0 147 113
2018-07-15 15:50:43 GMT 53.062893 7.784441 0 148 114
2018-07-15 15:50:36 GMT 53.066299 7.780914 0 150 111
2018-07-15 15:50:33 GMT 53.067875 7.779497 0 152 110
2018-07-15 15:50:24 GMT 53.071739 7.776202 0 151 109
2018-07-15 15:50:20 GMT 53.073303 7.774811 0 149 108
2018-07-15 15:50:13 GMT 53.076370 7.771912 0 152 105
2018-07-15 15:50:10 GMT 53.077698 7.770767 0 149 103
2018-07-15 15:49:59 GMT 53.082092 7.766342 0 147 101
2018-07-15 15:49:52 GMT 53.085007 7.763332 0 149 97
2018-07-15 15:49:47 GMT 53.086807 7.761536 0 149 97
2018-07-15 15:49:42 GMT 53.088593 7.759879 0 149 100
2018-07-15 15:49:37 GMT 53.090965 7.757525 0 150 100
2018-07-15 15:49:33 GMT 53.092529 7.756042 0 151 99
2018-07-15 15:49:26 GMT 53.095276 7.753444 0 150 100
2018-07-15 15:49:19 GMT 53.098206 7.750698 0 148 101
2018-07-15 15:49:15 GMT 53.099808 7.749050 0 148 101
2018-07-15 15:49:03 GMT 53.104935 7.744106 0 149 101
2018-07-15 15:48:56 GMT 53.107399 7.741726 0 149 100
2018-07-15 15:48:53 GMT 53.108982 7.740111 0 148 100
2018-07-15 15:48:40 GMT 53.114475 7.734860 0 151 103
2018-07-15 15:48:29 GMT 53.118530 7.730922 0 148 101
2018-07-15 15:48:19 GMT 53.122898 7.726943 0 149 107
2018-07-15 15:48:08 GMT 53.127556 7.722419 0 148 109
2018-07-15 15:47:59 GMT 53.131805 7.718209 0 148 101
2018-07-15 15:47:55 GMT 53.133179 7.716875 0 148 101
2018-07-15 15:47:45 GMT 53.137238 7.712968 0 148 101
2018-07-15 15:47:19 GMT 53.148056 7.702358 0 148 106
2018-07-15 15:47:10 GMT 53.151714 7.698912 0 151 102
2018-07-15 15:47:00 GMT 53.156067 7.694824 0 149 105
2018-07-15 15:46:49 GMT 53.160374 7.690349 0 149 105
2018-07-15 15:46:31 GMT 53.167915 7.683321 0 148 104
2018-07-15 15:46:22 GMT 53.171722 7.679443 0 149 103
2018-07-15 15:46:12 GMT 53.175552 7.675727 0 149 101
2018-07-15 15:46:03 GMT 53.179459 7.672067 0 150 100
2018-07-15 15:45:49 GMT 53.185093 7.666680 0 149 101
2018-07-15 15:45:41 GMT 53.188522 7.663278 0 149 105
2018-07-15 15:45:29 GMT 53.193832 7.658177 0 149 108
2018-07-15 15:45:20 GMT 53.197311 7.654724 0 148 109
2018-07-15 15:45:09 GMT 53.202301 7.650173 0 152 108
2018-07-15 15:44:57 GMT 53.208160 7.644287 0 147 110
2018-07-15 15:44:48 GMT 53.211491 7.640830 0 149 107
2018-07-15 15:44:36 GMT 53.216492 7.636047 0 149 105
2018-07-15 15:44:25 GMT 53.221115 7.631574 0 150 100
2018-07-15 15:44:12 GMT 53.226620 7.626289 0 150 100
2018-07-15 15:43:48 GMT 53.236176 7.617292 0 149 110
2018-07-15 15:43:31 GMT 53.243637 7.609916 0 149 110
2018-07-15 15:43:25 GMT 53.246475 7.607012 0 149 110
2018-07-15 15:43:12 GMT 53.251431 7.602135 0 149 107
2018-07-15 15:43:04 GMT 53.255219 7.598694 0 150 105
2018-07-15 15:42:34 GMT 53.267487 7.586687 0 147 103
2018-07-15 15:42:26 GMT 53.270565 7.583555 0 149 107
2018-07-15 15:42:15 GMT 53.275593 7.578789 0 149 115
2018-07-15 15:42:10 GMT 53.277824 7.576608 0 149 115
2018-07-15 15:42:00 GMT 53.282482 7.572084 0 149 109
2018-07-15 15:41:55 GMT 53.284531 7.570146 0 149 109
2018-07-15 15:41:48 GMT 53.287537 7.567226 0 149 109
2018-07-15 15:41:32 GMT 53.294540 7.560634 0 152 108
2018-07-15 15:41:28 GMT 53.296539 7.558836 0 151 106
2018-07-15 15:41:22 GMT 53.298962 7.556655 0 148 102
2018-07-15 15:41:14 GMT 53.302414 7.553179 0 148 100
2018-07-15 15:41:08 GMT 53.304520 7.550982 0 148 101
2018-07-15 15:41:00 GMT 53.307804 7.547688 0 147 97
2018-07-15 15:40:55 GMT 53.310181 7.545184 0 149 95
2018-07-15 15:40:47 GMT 53.313065 7.542357 0 149 95
2018-07-15 15:40:43 GMT 53.314415 7.540983 0 149 97
2018-07-15 15:40:34 GMT 53.317886 7.537798 0 148 115
2018-07-15 15:40:15 GMT 53.326382 7.529270 0 149 113
2018-07-15 15:39:54 GMT 53.335831 7.520220 0 151 106
2018-07-15 15:39:33 GMT 53.344910 7.511336 0 149 105
2018-07-15 15:39:28 GMT 53.346497 7.509783 0 150 105
2018-07-15 15:39:19 GMT 53.350388 7.506252 0 149 105
2018-07-15 15:39:10 GMT 53.355240 7.501386 0 148 108
2018-07-15 15:38:54 GMT 53.361328 7.495344 0 148 112
2018-07-15 15:38:43 GMT 53.366180 7.490557 0 149 111
2018-07-15 15:38:31 GMT 53.371902 7.485378 0 152 110
2018-07-15 15:37:47 GMT 53.390945 7.469918 0 153 104
2018-07-15 15:37:30 GMT 53.398163 7.463756 0 153 104
2018-07-15 15:35:56 GMT 53.440979 7.426130 0 148 114
2018-07-15 15:34:53 GMT 53.469040 7.398507 0 155 110
2018-07-15 15:33:01 GMT 53.521317 7.356916 0 154 107
We lost coverage of the aircraft here for a total of 250 minutes
2018-07-15 11:23:27 GMT 53.620834 7.318699 0 327 95
2018-07-15 11:22:59 GMT 53.609756 7.331177 0 332 109
2018-07-15 11:22:34 GMT 53.598495 7.341064 0 332 109
2018-07-15 11:22:27 GMT 53.595638 7.344037 0 336 109
2018-07-15 11:21:35 GMT 53.571430 7.363506 0 343 108
2018-07-15 11:20:43 GMT 53.547958 7.378810 0 338 106
2018-07-15 11:20:21 GMT 53.538425 7.387013 0 328 101
2018-07-15 11:20:18 GMT 53.537247 7.388227 0 328 102
2018-07-15 11:20:11 GMT 53.534794 7.390729 0 326 96
2018-07-15 11:20:04 GMT 53.532093 7.393718 0 327 95
2018-07-15 11:19:49 GMT 53.526321 7.400019 0 327 106
2018-07-15 11:19:36 GMT 53.520813 7.405648 0 330 110
2018-07-15 11:19:27 GMT 53.516174 7.410359 0 328 110
2018-07-15 11:19:20 GMT 53.513565 7.413267 0 326 112
2018-07-15 11:19:08 GMT 53.508820 7.418440 0 331 102
2018-07-15 11:18:49 GMT 53.500946 7.426679 0 327 103
2018-07-15 11:18:35 GMT 53.495224 7.432816 0 328 102
2018-07-15 11:18:27 GMT 53.491966 7.436129 0 326 102
2018-07-15 11:18:12 GMT 53.486099 7.442510 0 329 102
2018-07-15 11:18:04 GMT 53.482750 7.445984 0 330 104
2018-07-15 11:17:54 GMT 53.478699 7.450143 0 328 101
2018-07-15 11:17:31 GMT 53.469772 7.460266 0 327 109
2018-07-15 11:17:22 GMT 53.465523 7.464483 0 331 104
2018-07-15 11:17:12 GMT 53.461029 7.468898 0 329 100
2018-07-15 11:17:01 GMT 53.456726 7.473530 0 327 102
2018-07-15 11:16:49 GMT 53.452560 7.478237 0 327 107
2018-07-15 11:16:35 GMT 53.446564 7.484750 0 328 102
2018-07-15 11:16:24 GMT 53.442154 7.489202 0 330 101
2018-07-15 11:16:15 GMT 53.438290 7.492999 0 328 102
2018-07-15 11:16:02 GMT 53.433197 7.498404 0 325 107
2018-07-15 11:15:55 GMT 53.430191 7.501885 0 330 104
2018-07-15 11:15:45 GMT 53.425781 7.506252 0 329 101
2018-07-15 11:15:32 GMT 53.420563 7.511823 0 327 102
2018-07-15 11:15:20 GMT 53.416122 7.516296 0 331 98
2018-07-15 11:15:10 GMT 53.412323 7.520220 0 327 102
2018-07-15 11:15:01 GMT 53.408432 7.524379 0 327 109
2018-07-15 11:14:50 GMT 53.403423 7.529755 0 328 110
2018-07-15 11:14:40 GMT 53.399048 7.534267 0 330 104
2018-07-15 11:14:28 GMT 53.394241 7.539368 0 329 102
2018-07-15 11:14:17 GMT 53.389549 7.543891 0 329 101
2018-07-15 11:14:05 GMT 53.385269 7.548706 0 326 100
2018-07-15 11:13:54 GMT 53.380966 7.553414 0 327 106
2018-07-15 11:13:44 GMT 53.376564 7.558109 0 329 106
2018-07-15 11:13:32 GMT 53.371674 7.563145 0 331 114
2018-07-15 11:13:22 GMT 53.366913 7.567932 0 328 118
2018-07-15 11:13:11 GMT 53.362083 7.573054 0 328 118
2018-07-15 11:13:01 GMT 53.356873 7.578385 0 329 114
2018-07-15 11:12:53 GMT 53.353867 7.581508 0 329 108
2018-07-15 11:12:50 GMT 53.352215 7.583232 0 329 108
2018-07-15 11:12:37 GMT 53.347000 7.588492 0 329 108
2018-07-15 11:12:34 GMT 53.345745 7.589856 0 329 109
2018-07-15 11:12:25 GMT 53.342194 7.593828 0 329 111
2018-07-15 11:12:17 GMT 53.338669 7.597531 0 328 113
2018-07-15 11:12:14 GMT 53.337479 7.598772 0 328 113
2018-07-15 11:12:04 GMT 53.332993 7.603559 0 328 118
2018-07-15 11:11:55 GMT 53.328709 7.608032 0 329 114
2018-07-15 11:11:45 GMT 53.324341 7.612819 0 329 109
2018-07-15 11:11:33 GMT 53.319305 7.617888 0 330 110
2018-07-15 11:11:23 GMT 53.314911 7.622471 0 329 109
2018-07-15 11:11:13 GMT 53.310272 7.627501 0 329 108
2018-07-15 11:11:02 GMT 53.305805 7.632186 0 328 110
2018-07-15 11:10:51 GMT 53.301010 7.636952 0 331 114
2018-07-15 11:10:41 GMT 53.296028 7.642041 0 327 115
2018-07-15 11:10:29 GMT 53.290627 7.647938 0 328 112
2018-07-15 11:10:18 GMT 53.286625 7.652220 0 328 114
2018-07-15 11:10:08 GMT 53.281723 7.657549 0 327 114
2018-07-15 11:09:57 GMT 53.276802 7.662560 0 331 118
2018-07-15 11:09:47 GMT 53.271587 7.667730 0 328 117
2018-07-15 11:09:40 GMT 53.268749 7.670719 0 329 114
2018-07-15 11:09:35 GMT 53.266747 7.672819 0 328 114
2018-07-15 11:09:25 GMT 53.262177 7.677795 0 328 110
2018-07-15 11:09:14 GMT 53.257576 7.682594 0 328 108
2018-07-15 11:09:08 GMT 53.254921 7.685421 0 328 107
2018-07-15 11:09:04 GMT 53.253014 7.687441 0 328 108
2018-07-15 11:08:53 GMT 53.248592 7.691965 0 331 108
2018-07-15 11:08:41 GMT 53.243637 7.696472 0 332 106
2018-07-15 11:08:32 GMT 53.239105 7.700788 0 332 109
2018-07-15 11:08:21 GMT 53.234207 7.705213 0 332 110
2018-07-15 11:08:10 GMT 53.229412 7.709413 0 333 118
2018-07-15 11:07:59 GMT 53.224274 7.713972 0 334 110
2018-07-15 11:07:48 GMT 53.219284 7.718131 0 333 112
2018-07-15 11:07:37 GMT 53.213722 7.723066 0 332 109
2018-07-15 11:07:25 GMT 53.208893 7.727940 0 329 108
2018-07-15 11:07:15 GMT 53.204361 7.732099 0 333 105
2018-07-15 11:07:03 GMT 53.199692 7.735866 0 335 107
2018-07-15 11:06:53 GMT 53.194748 7.740261 0 332 109
2018-07-15 11:06:43 GMT 53.189983 7.744877 0 332 109
2018-07-15 11:06:30 GMT 53.184910 7.749400 0 332 112
2018-07-15 11:06:20 GMT 53.180237 7.753523 0 334 110
2018-07-15 11:06:13 GMT 53.176716 7.756509 0 336 111
2018-07-15 11:06:10 GMT 53.175476 7.757525 0 336 111
2018-07-15 11:06:02 GMT 53.171906 7.760350 0 334 113
2018-07-15 11:05:59 GMT 53.170258 7.761684 0 334 113
2018-07-15 11:05:52 GMT 53.166985 7.764345 0 335 110
2018-07-15 11:05:48 GMT 53.165169 7.765799 0 334 109
2018-07-15 11:05:41 GMT 53.162430 7.768119 0 333 107
2018-07-15 11:05:37 GMT 53.160187 7.770000 0 335 105
2018-07-15 11:05:32 GMT 53.157814 7.771858 0 336 106
2018-07-15 11:05:26 GMT 53.155289 7.773926 0 336 106
2018-07-15 11:05:21 GMT 53.153229 7.775495 0 335 110
2018-07-15 11:05:15 GMT 53.150414 7.777836 0 335 112
2018-07-15 11:05:11 GMT 53.148468 7.779340 0 333 114
2018-07-15 11:05:04 GMT 53.145218 7.782087 0 334 115
2018-07-15 11:04:59 GMT 53.142639 7.784137 0 335 114
2018-07-15 11:04:53 GMT 53.140091 7.786168 0 334 109
2018-07-15 11:04:50 GMT 53.138672 7.787345 0 334 106
2018-07-15 11:04:42 GMT 53.135101 7.790170 0 336 106
2018-07-15 11:04:39 GMT 53.133884 7.791084 0 335 108
2018-07-15 11:04:30 GMT 53.129417 7.794881 0 332 110
2018-07-15 11:04:19 GMT 53.124664 7.798723 0 336 110
2018-07-15 11:04:08 GMT 53.119766 7.802647 0 324 110
2018-07-15 11:03:58 GMT 53.115143 7.806571 0 333 112
2018-07-15 11:03:47 GMT 53.110153 7.810495 0 336 110
2018-07-15 11:03:36 GMT 53.104607 7.814834 0 333 114
2018-07-15 11:03:25 GMT 53.099442 7.818813 0 336 115
2018-07-15 11:03:15 GMT 53.094784 7.822658 0 332 106
2018-07-15 11:03:05 GMT 53.090034 7.826503 0 334 104
2018-07-15 11:02:54 GMT 53.085159 7.830582 0 324 110
2018-07-15 11:02:45 GMT 53.081654 7.833409 0 335 110
2018-07-15 11:02:42 GMT 53.080261 7.834549 0 334 111
2018-07-15 11:02:36 GMT 53.076920 7.837296 0 333 112
2018-07-15 11:02:32 GMT 53.075508 7.838431 0 333 112
2018-07-15 11:02:25 GMT 53.072296 7.841187 0 333 112
2018-07-15 11:02:22 GMT 53.070389 7.842826 0 324 110
2018-07-15 11:02:14 GMT 53.067551 7.845180 0 334 106
2018-07-15 11:02:11 GMT 53.065613 7.846756 0 333 105
2018-07-15 11:02:05 GMT 53.063004 7.849045 0 333 106
2018-07-15 11:02:00 GMT 53.060715 7.850952 0 335 107
2018-07-15 11:01:54 GMT 53.058426 7.852713 0 337 106
2018-07-15 11:01:49 GMT 53.055862 7.854614 0 336 105
2018-07-15 11:01:42 GMT 53.053024 7.856674 0 336 109
2018-07-15 11:01:37 GMT 53.050697 7.858364 0 324 110
2018-07-15 11:01:33 GMT 53.049023 7.859698 0 325 111
2018-07-15 11:01:27 GMT 53.045902 7.862915 0 324 110
2018-07-15 11:01:23 GMT 53.044598 7.864563 0 321 109
2018-07-15 11:01:18 GMT 53.042816 7.867126 0 320 108
2018-07-15 11:01:13 GMT 53.040710 7.870026 0 327 105
2018-07-15 11:01:10 GMT 53.039478 7.871390 0 331 105
2018-07-15 11:01:03 GMT 53.036407 7.874137 0 332 106
2018-07-15 11:00:55 GMT 53.032867 7.877119 0 333 110
2018-07-15 11:00:52 GMT 53.031647 7.878189 0 334 111
2018-07-15 11:00:42 GMT 53.026817 7.881670 0 337 114
2018-07-15 11:00:31 GMT 53.021576 7.885437 0 336 117
2018-07-15 11:00:25 GMT 53.018463 7.887726 0 339 115
2018-07-15 11:00:21 GMT 53.016575 7.888968 0 337 114
2018-07-15 11:00:11 GMT 53.011505 7.892609 0 336 111
2018-07-15 11:00:00 GMT 53.006798 7.896345 0 335 103
2018-07-15 10:59:50 GMT 53.002331 7.899641 0 337 108
2018-07-15 10:59:44 GMT 52.999954 7.901367 0 337 109
2018-07-15 10:59:39 GMT 52.997269 7.903366 0 337 109
2018-07-15 10:59:34 GMT 52.994934 7.904968 0 337 115
2018-07-15 10:59:28 GMT 52.991959 7.907028 0 337 119
2018-07-15 10:59:19 GMT 52.987434 7.910549 0 337 119
2018-07-15 10:59:16 GMT 52.986099 7.911530 0 337 118
2018-07-15 10:59:07 GMT 52.981064 7.915497 0 335 114
2018-07-15 10:58:58 GMT 52.977283 7.918631 0 334 109
2018-07-15 10:58:55 GMT 52.975983 7.919573 0 336 107
2018-07-15 10:58:47 GMT 52.972458 7.922134 0 337 106
2018-07-15 10:58:44 GMT 52.969791 7.924046 0 337 109
2018-07-15 10:58:37 GMT 52.967697 7.925644 0 335 110
2018-07-15 10:58:31 GMT 52.964668 7.928205 0 333 112
2018-07-15 10:58:27 GMT 52.962807 7.929775 0 334 113
2018-07-15 10:58:16 GMT 52.958057 7.933306 0 333 107
2018-07-15 10:58:06 GMT 52.953308 7.936916 0 332 106
2018-07-15 10:57:58 GMT 52.949448 7.940290 0 332 107
2018-07-15 10:57:55 GMT 52.948704 7.940918 0 332 107
2018-07-15 10:57:49 GMT 52.945999 7.943420 0 331 111
2018-07-15 10:57:45 GMT 52.944138 7.945156 0 332 111
2018-07-15 10:57:42 GMT 52.942245 7.946854 0 333 114
2018-07-15 10:57:34 GMT 52.939224 7.949524 1,600 334 113
2018-07-15 10:57:24 GMT 52.934372 7.953720 1,600 331 115
2018-07-15 10:57:13 GMT 52.929565 7.958221 1,600 330 117
2018-07-15 10:57:07 GMT 52.926590 7.961164 1,600 331 116
2018-07-15 10:57:04 GMT 52.924667 7.963104 1,600 329 115
2018-07-15 10:56:56 GMT 52.921280 7.966080 1,600 338 116
2018-07-15 10:56:53 GMT 52.919838 7.967128 1,600 339 116
2018-07-15 10:56:42 GMT 52.913925 7.970110 1,600 352 114
2018-07-15 10:56:30 GMT 52.908234 7.971573 1,600 351 112
2018-07-15 10:56:24 GMT 52.905315 7.972386 1,600 349 108
2018-07-15 10:56:20 GMT 52.903015 7.973175 1,600 349 108
2018-07-15 10:56:12 GMT 52.899029 7.974583 1,600 346 107
2018-07-15 10:56:09 GMT 52.897614 7.975159 1,600 345 106
2018-07-15 10:56:06 GMT 52.896191 7.975839 1,600 350 106
2018-07-15 10:56:01 GMT 52.893951 7.976990 1,600 344 108
2018-07-15 10:55:58 GMT 52.892578 7.977524 1,600 348 107
2018-07-15 10:55:51 GMT 52.888882 7.978742 1,600 348 105
2018-07-15 10:55:46 GMT 52.886856 7.979507 1,600 348 104
2018-07-15 10:55:43 GMT 52.885250 7.980076 1,600 349 107
2018-07-15 10:55:40 GMT 52.884132 7.980390 1,600 348 106
2018-07-15 10:55:37 GMT 52.882366 7.981097 1,600 346 107
2018-07-15 10:55:30 GMT 52.879211 7.982483 1,600 345 102
2018-07-15 10:55:23 GMT 52.876236 7.984009 1,600 343 100
2018-07-15 10:55:19 GMT 52.874451 7.984924 1,600 341 100
2018-07-15 10:55:12 GMT 52.870880 7.986984 1,600 343 102
2018-07-15 10:55:09 GMT 52.869736 7.987595 1,600 342 103
2018-07-15 10:55:05 GMT 52.867767 7.988586 1,600 342 103
2018-07-15 10:54:59 GMT 52.865093 7.989886 1,600 345 102
2018-07-15 10:54:55 GMT 52.862961 7.990952 1,600 344 105
2018-07-15 10:54:48 GMT 52.859924 7.992397 1,600 343 105
2018-07-15 10:54:44 GMT 52.857971 7.993393 1,600 342 106
2018-07-15 10:54:38 GMT 52.855270 7.994843 1,600 342 107
2018-07-15 10:54:32 GMT 52.852570 7.996292 1,600 343 110
2018-07-15 10:54:28 GMT 52.850430 7.997498 1,600 344 109
2018-07-15 10:54:20 GMT 52.846069 7.999649 1,600 348 107
2018-07-15 10:54:16 GMT 52.844833 8.000183 1,600 346 108
2018-07-15 10:54:12 GMT 52.842236 8.001264 1,600 348 109
2018-07-15 10:54:06 GMT 52.839630 8.002049 1,600 351 112
2018-07-15 10:54:01 GMT 52.836742 8.002677 1,600 355 110
2018-07-15 10:53:55 GMT 52.834213 8.003082 1,600 353 110
2018-07-15 10:53:49 GMT 52.831249 8.003697 1,600 354 111
2018-07-15 10:53:45 GMT 52.828949 8.004074 1,600 354 110
2018-07-15 10:53:37 GMT 52.824593 8.005110 1,600 352 113
2018-07-15 10:53:34 GMT 52.823685 8.005295 1,600 354 108
2018-07-15 10:53:27 GMT 52.820297 8.006058 1,600 351 113
2018-07-15 10:53:24 GMT 52.818375 8.006592 1,600 350 113
2018-07-15 10:53:16 GMT 52.814632 8.007699 1,600 351 111
2018-07-15 10:53:13 GMT 52.812908 8.008170 1,600 350 112
2018-07-15 10:53:04 GMT 52.807602 8.009112 1,600 359 112
2018-07-15 10:52:56 GMT 52.803452 8.009109 1,600 0 113
2018-07-15 10:52:53 GMT 52.802155 8.009112 1,600 0 113
2018-07-15 10:52:43 GMT 52.796860 8.009186 1,600 0 124
2018-07-15 10:52:33 GMT 52.790844 8.009347 1,600 0 116
2018-07-15 10:52:26 GMT 52.787613 8.009262 1,600 3 106
2018-07-15 10:52:22 GMT 52.785645 8.009109 1,600 2 102
2018-07-15 10:52:12 GMT 52.781021 8.009033 1,600 358 104
2018-07-15 10:52:02 GMT 52.776226 8.009269 1,600 358 102
2018-07-15 10:51:50 GMT 52.770966 8.009426 1,600 0 111
2018-07-15 10:51:41 GMT 52.765518 8.009269 1,600 358 112
2018-07-15 10:51:30 GMT 52.759701 8.009190 1,600 358 112
2018-07-15 10:51:18 GMT 52.754532 8.009426 1,600 0 112
2018-07-15 10:51:10 GMT 52.749664 8.009415 1,600 0 112
2018-07-15 10:51:07 GMT 52.748886 8.009415 1,600 2 107
2018-07-15 10:50:59 GMT 52.744572 8.009426 1,600 1 110
2018-07-15 10:50:55 GMT 52.741821 8.009347 1,600 2 107
2018-07-15 10:50:48 GMT 52.739311 8.009190 1,600 1 106
2018-07-15 10:50:45 GMT 52.737808 8.009109 1,600 359 111
2018-07-15 10:50:39 GMT 52.733955 8.009112 1,600 0 112
2018-07-15 10:50:34 GMT 52.731812 8.009109 1,600 359 111
2018-07-15 10:50:27 GMT 52.728275 8.009190 1,600 359 109
2018-07-15 10:50:24 GMT 52.726833 8.009269 1,600 359 105
2018-07-15 10:50:18 GMT 52.723763 8.009426 1,600 359 104
2018-07-15 10:50:13 GMT 52.721619 8.009426 1,600 1 102
2018-07-15 10:50:07 GMT 52.718594 8.009347 1,600 1 101
2018-07-15 10:50:03 GMT 52.716660 8.009338 1,600 0 102
2018-07-15 10:49:57 GMT 52.713409 8.009338 1,600 359 104
2018-07-15 10:49:52 GMT 52.711426 8.009426 1,600 0 104
2018-07-15 10:49:46 GMT 52.708633 8.009426 1,600 0 105
2018-07-15 10:49:40 GMT 52.705189 8.009426 1,600 359 103
2018-07-15 10:49:35 GMT 52.703613 8.009491 1,600 359 102
2018-07-15 10:49:30 GMT 52.700996 8.009583 1,600 0 101
2018-07-15 10:49:26 GMT 52.698578 8.009504 1,600 1 102
2018-07-15 10:49:19 GMT 52.695831 8.009338 1,600 1 103
2018-07-15 10:49:14 GMT 52.693317 8.009269 1,600 1 104
2018-07-15 10:49:10 GMT 52.690987 8.009269 1,600 359 105
2018-07-15 10:49:04 GMT 52.688614 8.009269 1,600 1 103
2018-07-15 10:48:59 GMT 52.685669 8.009186 1,600 2 108
2018-07-15 10:48:54 GMT 52.683334 8.009109 1,600 1 107
2018-07-15 10:48:48 GMT 52.680771 8.008957 1,600 2 109
2018-07-15 10:48:41 GMT 52.677254 8.008719 1,600 1 108
2018-07-15 10:48:38 GMT 52.675442 8.008719 1,600 0 108
2018-07-15 10:48:34 GMT 52.673672 8.008641 1,600 0 108
2018-07-15 10:48:27 GMT 52.669853 8.008562 1,600 0 101
2018-07-15 10:48:22 GMT 52.667770 8.008423 1,600 2 102
2018-07-15 10:48:17 GMT 52.665806 8.008327 1,600 0 101
2018-07-15 10:48:13 GMT 52.663849 8.008248 1,600 1 99
2018-07-15 10:48:01 GMT 52.658615 8.008194 1,600 0 99
2018-07-15 10:47:54 GMT 52.655144 8.008170 1,600 358 100
2018-07-15 10:47:50 GMT 52.653397 8.008347 1,600 354 100
2018-07-15 10:47:44 GMT 52.650021 8.009033 1,600 354 100
2018-07-15 10:47:30 GMT 52.643925 8.010367 1,600 355 102
2018-07-15 10:47:19 GMT 52.638382 8.011398 1,600 358 102
2018-07-15 10:47:15 GMT 52.636826 8.011398 1,600 359 103
2018-07-15 10:47:11 GMT 52.634811 8.011246 1,600 359 104
2018-07-15 10:47:06 GMT 52.632565 8.011152 1,600 2 105
2018-07-15 10:47:01 GMT 52.629539 8.010995 1,600 1 106
2018-07-15 10:46:51 GMT 52.625351 8.010917 1,600 1 106
2018-07-15 10:46:48 GMT 52.623734 8.010864 1,600 359 104
2018-07-15 10:46:45 GMT 52.622223 8.010864 1,600 0 103
2018-07-15 10:46:37 GMT 52.618320 8.011074 1,600 358 103
2018-07-15 10:46:28 GMT 52.614304 8.011246 1,600 359 104
2018-07-15 10:46:24 GMT 52.612595 8.011230 1,600 359 104
2018-07-15 10:46:16 GMT 52.608265 8.011309 1,600 2 109
2018-07-15 10:46:06 GMT 52.603329 8.010367 1,600 2 109
2018-07-15 10:45:57 GMT 52.598190 8.009033 1,600 9 110
2018-07-15 10:45:39 GMT 52.589401 8.007202 1,600 7 111
2018-07-15 10:45:34 GMT 52.587112 8.006668 1,600 7 111
2018-07-15 10:45:29 GMT 52.584045 8.006134 1,600 6 110
2018-07-15 10:45:26 GMT 52.582672 8.005905 1,600 7 110
2018-07-15 10:45:07 GMT 52.573212 8.004168 1,600 5 107
2018-07-15 10:45:00 GMT 52.569206 8.003305 1,600 5 107
2018-07-15 10:44:57 GMT 52.567486 8.002991 1,600 5 107
2018-07-15 10:44:51 GMT 52.565414 8.002701 1,600 4 107
2018-07-15 10:44:37 GMT 52.557587 8.001862 1,600 3 107
2018-07-15 10:44:34 GMT 52.556454 8.001735 1,600 2 112
2018-07-15 10:44:29 GMT 52.553421 8.001556 1,600 4 112
2018-07-15 10:44:26 GMT 52.552357 8.001578 1,600 1 110
2018-07-15 10:44:20 GMT 52.549530 8.001480 1,600 4 112
2018-07-15 10:44:03 GMT 52.540466 7.999115 1,600 13 109
2018-07-15 10:43:55 GMT 52.536804 7.998047 1,600 10 112
2018-07-15 10:43:48 GMT 52.533176 7.997027 1,600 8 113
2018-07-15 10:43:43 GMT 52.530708 7.996399 1,600 7 110
2018-07-15 10:43:32 GMT 52.525269 7.995071 1,600 7 109
2018-07-15 10:43:26 GMT 52.521538 7.994359 1,600 5 110
2018-07-15 10:43:21 GMT 52.519592 7.994080 1,600 2 110
2018-07-15 10:43:13 GMT 52.514786 7.994080 1,600 359 111
2018-07-15 10:43:05 GMT 52.511341 7.994045 1,600 0 111
2018-07-15 10:43:01 GMT 52.509480 7.994045 1,600 0 111
2018-07-15 10:42:55 GMT 52.506180 7.994003 1,600 1 111
2018-07-15 10:42:52 GMT 52.504532 7.994003 1,600 1 112
2018-07-15 10:42:41 GMT 52.499130 7.993927 1,600 2 109
2018-07-15 10:42:38 GMT 52.497437 7.993851 1,600 2 109
2018-07-15 10:42:29 GMT 52.493004 7.993495 1,600 3 110
2018-07-15 10:42:20 GMT 52.488392 7.993103 1,600 5 113
2018-07-15 10:42:11 GMT 52.483784 7.992240 1,600 5 113
2018-07-15 10:42:07 GMT 52.481876 7.992004 1,600 5 113
2018-07-15 10:42:03 GMT 52.479176 7.991612 1,600 5 113
2018-07-15 10:42:00 GMT 52.478394 7.991486 1,600 5 110
2018-07-15 10:41:57 GMT 52.476379 7.991180 1,600 3 107
2018-07-15 10:41:50 GMT 52.473221 7.990723 1,600 3 107
2018-07-15 10:41:40 GMT 52.468189 7.990043 1,600 5 107
2018-07-15 10:41:30 GMT 52.463303 7.988944 1,600 9 106
2018-07-15 10:41:20 GMT 52.458042 7.987610 1,600 6 106
2018-07-15 10:41:09 GMT 52.453060 7.986668 1,600 6 106
2018-07-15 10:41:04 GMT 52.450607 7.986221 1,600 6 106
2018-07-15 10:40:58 GMT 52.447311 7.985535 1,600 4 105
2018-07-15 10:40:49 GMT 52.443192 7.984942 1,600 5 105
2018-07-15 10:40:43 GMT 52.440765 7.984467 1,600 6 104
2018-07-15 10:40:36 GMT 52.437057 7.984009 1,600 2 105
2018-07-15 10:40:28 GMT 52.433075 7.983856 1,600 0 101
2018-07-15 10:40:17 GMT 52.428085 7.983932 1,600 0 100
2018-07-15 10:40:14 GMT 52.426895 7.983932 1,600 0 101
2018-07-15 10:40:07 GMT 52.423508 7.984085 1,600 358 103
2018-07-15 10:40:02 GMT 52.421219 7.984238 1,600 356 100
2018-07-15 10:39:57 GMT 52.418610 7.984549 1,600 358 99
2018-07-15 10:39:53 GMT 52.416798 7.984628 1,600 359 99
2018-07-15 10:39:47 GMT 52.413895 7.984619 1,600 1 98
2018-07-15 10:39:36 GMT 52.409348 7.984549 1,600 4 96
2018-07-15 10:39:32 GMT 52.407578 7.984314 1,600 8 97
2018-07-15 10:39:26 GMT 52.404831 7.983627 1,600 7 96
2018-07-15 10:39:23 GMT 52.403526 7.983294 1,600 8 96
2018-07-15 10:39:20 GMT 52.402317 7.982980 1,600 5 97
2018-07-15 10:39:16 GMT 52.400345 7.982407 1,600 8 96
2018-07-15 10:39:11 GMT 52.398193 7.981873 1,600 8 96
2018-07-15 10:39:05 GMT 52.395756 7.981332 1,600 7 96
2018-07-15 10:38:57 GMT 52.391891 7.980704 1,600 5 99
2018-07-15 10:38:53 GMT 52.390354 7.980469 1,600 5 97
2018-07-15 10:38:49 GMT 52.388351 7.980118 1,600 5 99
2018-07-15 10:38:44 GMT 52.385792 7.979762 1,600 5 100
2018-07-15 10:38:41 GMT 52.384644 7.979660 1,600 1 103
2018-07-15 10:38:34 GMT 52.381622 7.979507 1,600 1 103
2018-07-15 10:38:31 GMT 52.380341 7.979507 1,600 0 104
2018-07-15 10:38:26 GMT 52.377457 7.979507 1,600 0 105
2018-07-15 10:38:22 GMT 52.375225 7.979449 1,600 0 99
2018-07-15 10:38:17 GMT 52.373268 7.979370 0 359 97
2018-07-15 10:38:12 GMT 52.371277 7.979431 0 358 97
2018-07-15 10:38:09 GMT 52.369686 7.979527 0 358 97
2018-07-15 10:38:01 GMT 52.365692 7.979813 0 355 101
2018-07-15 10:37:53 GMT 52.362350 7.980347 0 353 103
2018-07-15 10:37:49 GMT 52.360374 7.980704 0 352 106
2018-07-15 10:37:41 GMT 52.356537 7.981491 0 352 107
2018-07-15 10:37:38 GMT 52.355206 7.981803 0 353 108
2018-07-15 10:37:32 GMT 52.352039 7.982588 0 352 111
2018-07-15 10:37:29 GMT 52.350784 7.982901 0 351 112
2018-07-15 10:37:22 GMT 52.346920 7.983843 0 350 112
2018-07-15 10:37:19 GMT 52.345615 7.984157 0 351 113
2018-07-15 10:37:12 GMT 52.341751 7.985334 0 349 113
2018-07-15 10:37:09 GMT 52.340240 7.985916 0 347 113
2018-07-15 10:36:59 GMT 52.334885 7.987976 0 347 109
2018-07-15 10:36:51 GMT 52.330994 7.989655 0 346 105
2018-07-15 10:36:48 GMT 52.329838 7.990199 0 346 103
2018-07-15 10:36:40 GMT 52.326141 7.991333 0 2 103
2018-07-15 10:36:37 GMT 52.325043 7.991333 0 6 101
2018-07-15 10:36:30 GMT 52.321655 7.989273 0 25 101
2018-07-15 10:36:27 GMT 52.320328 7.988281 0 22 100
2018-07-15 10:36:20 GMT 52.317398 7.986298 0 23 102
2018-07-15 10:36:16 GMT 52.315796 7.985153 0 21 102
2018-07-15 10:36:09 GMT 52.312519 7.983058 0 20 104
2018-07-15 10:36:06 GMT 52.311218 7.982178 0 20 104
2018-07-15 10:35:58 GMT 52.307007 7.979965 0 14 104
2018-07-15 10:35:55 GMT 52.306046 7.979584 0 13 105
2018-07-15 10:35:48 GMT 52.302841 7.978287 0 12 102
2018-07-15 10:35:45 GMT 52.301514 7.977753 0 12 102
2018-07-15 10:35:39 GMT 52.298767 7.976685 0 15 92
2018-07-15 10:35:35 GMT 52.296318 7.975682 0 13 100
2018-07-15 10:35:29 GMT 52.293823 7.974777 0 11 98
2018-07-15 10:35:25 GMT 52.292221 7.974191 0 13 91
2018-07-15 10:35:19 GMT 52.289707 7.973249 0 13 91
2018-07-15 10:35:14 GMT 52.287704 7.972464 0 13 91
2018-07-15 10:35:08 GMT 52.285309 7.971420 0 12 90
2018-07-15 10:35:04 GMT 52.283661 7.970963 0 7 86
2018-07-15 10:34:58 GMT 52.281235 7.970503 0 2 85
2018-07-15 10:34:55 GMT 52.280045 7.970428 0 0 85
2018-07-15 10:34:51 GMT 52.278488 7.970352 0 0 85
2018-07-15 10:34:47 GMT 52.277092 7.970424 0 359 87
2018-07-15 10:34:39 GMT 52.273590 7.970886 0 337 88
2018-07-15 10:34:36 GMT 52.272629 7.971420 0 337 88
2018-07-15 10:34:33 GMT 52.271366 7.972464 0 303 92
2018-07-15 10:34:26 GMT 52.269379 7.976379 0 287 93
2018-07-15 10:34:19 GMT 52.269131 7.981018 0 259 92
2018-07-15 10:34:16 GMT 52.269409 7.982980 0 250 92
2018-07-15 10:34:12 GMT 52.270157 7.985611 0 213 88
2018-07-15 10:34:06 GMT 52.271942 7.988586 0 213 88
2018-07-15 10:33:59 GMT 52.274902 7.990670 0 194 87
2018-07-15 10:33:55 GMT 52.275928 7.990906 0 186 86
2018-07-15 10:33:51 GMT 52.277893 7.991104 0 178 86
2018-07-15 10:33:46 GMT 52.280045 7.991104 0 171 85
2018-07-15 10:33:39 GMT 52.282104 7.990799 0 161 84
2018-07-15 10:33:30 GMT 52.285191 7.988002 0 101 66

Making use of Plane Finder data

You are free to use the raw flight data, aircraft information and images provided in this report for your own purposes provided the data is correctly attributed to Plane Finder. We ask that you please credit Plane Finder and link to planefinder.net in close proximity to the content.

Optionally one of the following logos (no smaller then 150x24px) can be used and must link to planefinder.net

Embedding the Plane Finder map

You are welcome to embed the Plane Finder playback map on your website to offer visitors a more interactive experience. We suggest using the following HTML code:

<iframe src="//planefinder.net/data/report/DMCMY-D-MFDX-7700-squawk-2018-07-15/map" width="800" height="600" seamless="seamless"></iframe>

Where our data comes from

Plane Finder has a global network of data feeds and antenna radars that receive data broadcast directly from aircraft. The primary technologies used are ADS-B and MLAT. We also show feeds from the FAA and a FLARM glider feed.

Click here to find out more about the Plane Finder network.

How we collect our data